Time;durP1;ratioP1;P1;durP2;ratioP2;P2;SDS_P1;SDS_P2;PMS_P1;PMS_P2;Temp;Humidity;BMP_temperature;BMP_pressure;BME280_temperature;BME280_humidity;BME280_pressure;Samples;Min_cycle;Max_cycle;Signal;HPM_P1;HPM_P2
2023/07/15 00:02:20;;;;;;;1.73;1.50;;;;;;;14.63;83.96;100320.00;5024644;28;20026;-71
2023/07/15 00:04:46;;;;;;;5.55;1.95;;;;;;;14.62;83.98;100317.44;5024541;28;20048;-70
2023/07/15 00:07:11;;;;;;;2.15;1.55;;;;;;;14.62;83.47;100323.53;5023287;28;20026;-72
2023/07/15 00:09:38;;;;;;;3.17;1.88;;;;;;;14.62;83.51;100320.06;5023243;28;20064;-71
2023/07/15 00:12:04;;;;;;;3.78;2.22;;;;;;;14.57;83.63;100317.56;5039850;28;20034;-72
2023/07/15 00:14:29;;;;;;;2.85;1.95;;;;;;;14.58;83.58;100303.63;5025023;28;20077;-72
2023/07/15 00:16:55;;;;;;;2.63;1.63;;;;;;;14.64;83.36;100315.66;5024736;28;20022;-73
2023/07/15 00:19:22;;;;;;;4.40;1.60;;;;;;;14.65;83.06;100309.53;5024138;28;20026;-72
2023/07/15 00:21:48;;;;;;;4.50;2.00;;;;;;;14.63;82.88;100309.56;5024603;28;20030;-73
2023/07/15 00:24:14;;;;;;;2.17;1.42;;;;;;;14.67;82.39;100312.09;5035111;28;20042;-73
2023/07/15 00:26:40;;;;;;;2.55;1.80;;;;;;;14.67;82.48;100304.25;5048007;28;20047;-74
2023/07/15 00:29:06;;;;;;;2.30;1.58;;;;;;;14.70;81.71;100298.94;5048020;28;20029;-72
2023/07/15 00:31:33;;;;;;;6.22;1.70;;;;;;;14.71;81.81;100301.50;5047807;28;20036;-71
2023/07/15 00:33:59;;;;;;;1.58;1.35;;;;;;;14.70;81.81;100288.50;5048038;28;20021;-72
2023/07/15 00:36:26;;;;;;;1.42;1.33;;;;;;;14.66;81.76;100284.25;5047766;28;20033;-71
2023/07/15 00:38:53;;;;;;;1.80;1.48;;;;;;;14.71;81.23;100285.00;5047713;28;20047;-72
2023/07/15 00:41:30;;;;;;;2.47;1.67;;;;;;;14.67;81.11;100280.75;5047717;28;20018;-72
2023/07/15 00:43:56;;;;;;;2.90;1.83;;;;;;;14.71;80.75;100285.00;5029703;28;20064;-74
2023/07/15 00:46:22;;;;;;;4.03;1.95;;;;;;;14.68;80.68;100285.09;5047664;28;20094;-72
2023/07/15 00:49:09;;;;;;;5.85;1.83;;;;;;;14.68;80.88;100283.31;5046231;28;20030;-73
2023/07/15 00:51:38;;;;;;;4.32;1.27;;;;;;;14.65;80.54;100272.09;5047594;28;20081;-72
2023/07/15 00:54:05;;;;;;;3.17;1.80;;;;;;;14.70;80.21;100283.25;5029561;28;20022;-72
2023/07/15 00:56:36;;;;;;;2.40;1.50;;;;;;;14.66;80.01;100274.69;5047460;28;20040;-72
2023/07/15 00:59:02;;;;;;;3.58;1.17;;;;;;;14.67;80.26;100278.13;5047538;28;20028;-72
2023/07/15 01:01:28;;;;;;;2.03;1.42;;;;;;;14.65;79.51;100270.34;5047478;28;20075;-73
2023/07/15 01:03:54;;;;;;;2.90;1.42;;;;;;;14.70;79.18;100268.47;5029254;28;20029;-71
2023/07/15 01:06:21;;;;;;;1.50;1.38;;;;;;;14.73;79.33;100275.34;5047041;28;20057;-73
2023/07/15 01:08:46;;;;;;;2.10;1.67;;;;;;;14.70;79.01;100276.28;5045935;28;20033;-72
2023/07/15 01:11:12;;;;;;;1.52;1.40;;;;;;;14.75;78.37;100274.41;5047079;28;20355;-72
2023/07/15 01:13:37;;;;;;;1.05;0.90;;;;;;;14.77;78.39;100269.16;5047025;28;20029;-72
2023/07/15 01:16:03;;;;;;;2.33;1.48;;;;;;;14.75;77.98;100274.41;5047025;28;20057;-71
2023/07/15 01:18:29;;;;;;;3.78;1.90;;;;;;;14.74;77.71;100264.84;5029088;28;20486;-72
2023/07/15 01:20:58;;;;;;;1.70;1.35;;;;;;;14.86;77.23;100273.28;5029055;28;20035;-71
2023/07/15 01:23:24;;;;;;;3.80;1.23;;;;;;;14.85;76.88;100267.22;5046784;28;20021;-72
2023/07/15 01:25:49;;;;;;;9.18;2.67;;;;;;;14.88;76.45;100266.25;5029045;28;20089;-72
2023/07/15 01:28:15;;;;;;;1.38;1.17;;;;;;;14.89;76.64;100272.34;5046790;28;20040;-72
2023/07/15 01:30:40;;;;;;;2.17;1.38;;;;;;;14.86;76.35;100262.81;5046836;28;20102;-71
2023/07/15 01:33:06;;;;;;;1.92;1.17;;;;;;;14.86;76.37;100274.13;5046296;28;20032;-72
2023/07/15 01:35:32;;;;;;;3.55;1.45;;;;;;;14.90;75.92;100268.81;5045172;28;20021;-73
2023/07/15 01:37:57;;;;;;;2.85;1.30;;;;;;;14.85;75.68;100259.38;5045484;28;20083;-72
2023/07/15 01:40:22;;;;;;;6.28;1.65;;;;;;;14.95;75.31;100259.09;5046717;28;20056;-72
2023/07/15 01:42:48;;;;;;;1.15;1.05;;;;;;;14.93;74.71;100260.91;5046540;28;20025;-72
2023/07/15 01:45:13;;;;;;;1.95;1.60;;;;;;;14.91;74.42;100245.25;5046472;28;20021;-71
2023/07/15 01:47:39;;;;;;;4.35;1.63;;;;;;;14.95;74.19;100253.88;5045058;28;20108;-72
2023/07/15 01:50:08;;;;;;;1.52;1.10;;;;;;;14.82;73.91;100229.84;5046151;28;20051;-72
2023/07/15 01:52:34;;;;;;;2.20;1.60;;;;;;;14.93;73.62;100242.59;5046512;28;20025;-71
2023/07/15 01:54:59;;;;;;;2.35;1.30;;;;;;;15.00;73.55;100244.13;5046471;28;20013;-72
2023/07/15 01:57:30;;;;;;;3.22;1.92;;;;;;;15.01;73.04;100243.22;5044817;28;20428;-72
2023/07/15 01:59:58;;;;;;;1.40;1.17;;;;;;;15.03;72.70;100238.78;5046389;28;20113;-71
2023/07/15 02:02:24;;;;;;;1.38;1.10;;;;;;;15.02;72.95;100241.44;5046185;28;20034;-74
2023/07/15 02:04:50;;;;;;;3.55;1.75;;;;;;;15.03;72.38;100228.34;5044721;28;20092;-72
2023/07/15 02:07:15;;;;;;;3.97;1.50;;;;;;;15.06;71.80;100236.13;5046218;28;20402;-70
2023/07/15 02:09:40;;;;;;;1.60;1.45;;;;;;;15.09;71.65;100238.63;5046261;28;20053;-73
2023/07/15 02:12:06;;;;;;;5.82;1.45;;;;;;;15.14;71.38;100235.00;5044940;28;20028;-71
2023/07/15 02:14:32;;;;;;;6.38;1.90;;;;;;;15.15;70.99;100236.72;5044920;28;20462;-70
2023/07/15 02:16:57;;;;;;;2.38;1.38;;;;;;;15.09;71.12;100238.63;5045860;28;20636;-72
2023/07/15 02:19:23;;;;;;;0.82;0.82;;;;;;;15.14;70.95;100237.63;5044397;28;20465;-71
2023/07/15 02:21:48;;;;;;;5.15;1.52;;;;;;;15.16;70.59;100238.44;5045897;28;20022;-72
2023/07/15 02:24:14;;;;;;;1.83;1.40;;;;;;;15.16;70.41;100238.44;5045567;28;20064;-72
2023/07/15 02:26:39;;;;;;;3.85;1.23;;;;;;;15.18;70.10;100232.25;5045704;28;20022;-72
2023/07/15 02:29:05;;;;;;;0.98;0.88;;;;;;;15.20;69.93;100240.06;5045667;28;20044;-71
2023/07/15 02:31:30;;;;;;;3.30;1.70;;;;;;;15.28;69.75;100240.69;5044468;28;20021;-71
2023/07/15 02:33:56;;;;;;;2.67;1.48;;;;;;;15.26;69.56;100245.09;5044289;28;20014;-72
2023/07/15 02:36:21;;;;;;;5.40;1.13;;;;;;;15.24;69.79;100247.75;5045688;28;20463;-72
2023/07/15 02:38:47;;;;;;;1.25;1.15;;;;;;;15.24;69.79;100249.50;5045428;28;20021;-72
2023/07/15 02:41:12;;;;;;;2.63;1.20;;;;;;;15.20;70.11;100256.63;5045338;28;20026;-71
2023/07/15 02:43:37;;;;;;;1.98;1.33;;;;;;;15.21;70.05;100263.53;5045558;28;20021;-71
2023/07/15 02:46:03;;;;;;;1.65;1.48;;;;;;;15.14;70.14;100256.81;5044595;28;20018;-72
2023/07/15 02:48:28;;;;;;;2.70;1.65;;;;;;;15.16;70.26;100262.81;5045351;28;20054;-72
2023/07/15 02:50:55;;;;;;;2.33;1.50;;;;;;;15.14;70.52;100258.53;5044698;28;20021;-72
2023/07/15 02:53:21;;;;;;;1.95;1.33;;;;;;;15.06;70.73;100254.41;5027529;28;20037;-72
2023/07/15 02:55:46;;;;;;;2.80;1.30;;;;;;;15.02;70.91;100258.00;5045608;28;20021;-72
2023/07/15 02:58:17;;;;;;;1.95;1.30;;;;;;;15.07;70.96;100263.09;5045336;28;20044;-73
2023/07/15 03:00:42;;;;;;;2.80;1.60;;;;;;;15.01;71.59;100261.53;5045236;28;20025;-75
2023/07/15 03:03:09;;;;;;;3.60;1.42;;;;;;;14.90;71.95;100255.75;5045112;28;20025;-75
2023/07/15 03:05:35;;;;;;;2.10;1.40;;;;;;;14.87;72.26;100265.38;5027149;28;20024;-76
2023/07/15 03:08:00;;;;;;;2.17;1.40;;;;;;;14.73;73.06;100249.22;5027339;28;20021;-75
2023/07/15 03:10:26;;;;;;;1.63;1.38;;;;;;;14.68;73.73;100248.50;5027387;28;20456;-74
2023/07/15 03:12:51;;;;;;;2.35;1.40;;;;;;;14.65;73.99;100248.59;5045108;28;20538;-75
2023/07/15 03:15:17;;;;;;;2.97;1.25;;;;;;;14.63;74.12;100252.09;5044879;28;20473;-73
2023/07/15 03:17:43;;;;;;;2.10;1.42;;;;;;;14.58;74.70;100240.06;5044938;28;20123;-74
2023/07/15 03:20:19;;;;;;;3.03;1.10;;;;;;;14.59;74.79;100250.47;5044714;28;20029;-74
2023/07/15 03:22:45;;;;;;;4.63;1.52;;;;;;;14.49;75.36;100247.25;5044955;28;20025;-74
2023/07/15 03:25:10;;;;;;;2.45;1.52;;;;;;;14.49;75.70;100244.63;5026840;28;20069;-73
2023/07/15 03:27:36;;;;;;;4.78;1.20;;;;;;;14.48;76.21;100247.28;5044667;28;20032;-75
2023/07/15 03:30:02;;;;;;;2.45;1.33;;;;;;;14.22;76.36;100210.53;5026854;28;20025;-74
2023/07/15 03:32:27;;;;;;;3.47;1.48;;;;;;;14.43;76.71;100241.31;5044723;28;20078;-75
2023/07/15 03:34:53;;;;;;;1.35;1.13;;;;;;;14.42;76.91;100235.28;5044566;28;20025;-75
2023/07/15 03:37:19;;;;;;;2.83;1.70;;;;;;;14.45;77.17;100231.69;5044680;28;20104;-75
2023/07/15 03:39:44;;;;;;;2.90;1.77;;;;;;;14.37;77.49;100229.31;5044850;28;20020;-75
2023/07/15 03:42:10;;;;;;;3.50;1.52;;;;;;;14.33;77.71;100228.53;5044652;28;20032;-75
2023/07/15 03:44:35;;;;;;;3.47;1.65;;;;;;;14.28;77.91;100235.63;5044617;28;20025;-75
2023/07/15 03:47:00;;;;;;;4.38;1.80;;;;;;;14.25;78.43;100233.94;5044736;28;20022;-75
2023/07/15 03:49:26;;;;;;;2.28;1.45;;;;;;;14.20;78.69;100232.38;5043035;28;20021;-75
2023/07/15 03:51:51;;;;;;;2.42;1.50;;;;;;;14.22;78.94;100226.22;5044590;28;20075;-74
2023/07/15 03:54:17;;;;;;;3.90;1.48;;;;;;;14.24;79.25;100228.78;5044556;28;20022;-74
2023/07/15 03:56:42;;;;;;;3.03;1.42;;;;;;;14.26;79.26;100216.53;5045682;28;20033;-74
2023/07/15 03:59:08;;;;;;;2.28;1.70;;;;;;;14.27;79.10;100220.00;5048576;28;20151;-74
2023/07/15 04:01:35;;;;;;;7.00;1.63;;;;;;;14.27;79.53;100215.63;5030544;28;20113;-74
2023/07/15 04:04:04;;;;;;;4.65;1.65;;;;;;;14.28;79.65;100214.72;5047068;28;20026;-70
2023/07/15 04:06:33;;;;;;;3.17;1.77;;;;;;;14.34;79.30;100214.59;5048317;28;20032;-71
2023/07/15 04:08:58;;;;;;;3.17;1.45;;;;;;;14.34;79.43;100209.38;5048298;28;20093;-70
2023/07/15 04:11:24;;;;;;;2.53;1.70;;;;;;;14.35;79.56;100210.19;5048499;28;20033;-71
2023/07/15 04:13:49;;;;;;;4.10;1.75;;;;;;;14.27;79.29;100189.53;5047070;28;20090;-70
2023/07/15 04:16:14;;;;;;;2.25;1.88;;;;;;;14.42;79.21;100210.91;5048265;28;20403;-70
2023/07/15 04:18:42;;;;;;;2.72;1.50;;;;;;;14.41;79.38;100212.66;5046918;28;20022;-70
2023/07/15 04:21:07;;;;;;;7.68;1.52;;;;;;;14.44;79.21;100209.09;5048009;28;20021;-72
2023/07/15 04:23:33;;;;;;;6.20;1.67;;;;;;;14.49;79.01;100201.97;5047857;28;20030;-72
2023/07/15 04:25:58;;;;;;;2.28;1.30;;;;;;;14.58;78.29;100201.75;5048015;28;20048;-71
2023/07/15 04:28:24;;;;;;;5.82;1.90;;;;;;;14.45;78.42;100184.69;5047982;28;20025;-72
2023/07/15 04:30:50;;;;;;;1.25;1.00;;;;;;;14.57;78.19;100193.94;5048068;28;20033;-71
2023/07/15 04:33:16;;;;;;;4.03;1.25;;;;;;;14.60;77.32;100193.88;5030162;28;20049;-71
2023/07/15 04:35:43;;;;;;;2.28;1.15;;;;;;;14.54;77.68;100194.00;5029826;28;20048;-71
2023/07/15 04:38:09;;;;;;;7.03;1.63;;;;;;;14.50;77.79;100185.44;5029952;28;20028;-72
2023/07/15 04:40:35;;;;;;;1.88;1.08;;;;;;;14.54;77.39;100187.03;5047930;28;20032;-72
2023/07/15 04:43:00;;;;;;;1.95;1.17;;;;;;;14.57;77.63;100179.13;5047746;28;20017;-71
2023/07/15 04:45:26;;;;;;;4.38;1.38;;;;;;;14.59;77.19;100186.91;5047743;28;20109;-71
2023/07/15 04:47:52;;;;;;;1.73;1.08;;;;;;;14.51;77.62;100179.28;5047572;28;20037;-70
2023/07/15 04:50:17;;;;;;;1.83;1.40;;;;;;;14.55;77.08;100170.50;5045979;28;20029;-71
2023/07/15 04:52:43;;;;;;;2.20;1.63;;;;;;;14.68;76.61;100181.41;5046332;28;20021;-73
2023/07/15 04:55:09;;;;;;;2.33;1.48;;;;;;;14.57;76.90;100171.28;5046219;28;20013;-72
2023/07/15 04:57:34;;;;;;;1.70;1.13;;;;;;;14.58;77.08;100165.16;5047428;28;20033;-70
2023/07/15 05:00:00;;;;;;;4.00;1.80;;;;;;;14.61;76.80;100169.44;5047580;28;20032;-73
2023/07/15 05:02:25;;;;;;;1.98;1.60;;;;;;;14.69;76.78;100169.22;5047379;28;20059;-71
2023/07/15 05:04:50;;;;;;;0.85;0.85;;;;;;;14.59;77.18;100164.25;5047257;28;20025;-72
2023/07/15 05:07:16;;;;;;;1.30;1.20;;;;;;;14.56;77.62;100171.31;5045869;28;20085;-70
2023/07/15 05:09:42;;;;;;;2.88;1.33;;;;;;;14.58;77.36;100159.94;5045274;28;20078;-71
2023/07/15 05:12:10;;;;;;;3.15;1.08;;;;;;;14.59;77.05;100151.19;5047329;28;20025;-72
2023/07/15 05:14:36;;;;;;;3.67;1.40;;;;;;;14.63;76.96;100160.66;5029285;28;20025;-71
2023/07/15 05:17:02;;;;;;;2.17;1.80;;;;;;;14.59;77.53;100169.47;5047205;28;20081;-71
2023/07/15 05:19:28;;;;;;;1.05;0.80;;;;;;;14.62;77.14;100164.16;5046923;28;20025;-72
2023/07/15 05:21:53;;;;;;;2.03;1.42;;;;;;;14.63;76.91;100168.47;5046946;28;20042;-71
2023/07/15 05:24:19;;;;;;;8.18;1.95;;;;;;;14.61;77.54;100153.75;5042297;28;20040;-72
2023/07/15 05:26:44;;;;;;;4.78;1.85;;;;;;;14.56;77.69;100159.13;5025828;28;20057;-73
2023/07/15 05:29:10;;;;;;;4.30;1.52;;;;;;;14.57;77.73;100153.00;5025792;28;20025;-71
2023/07/15 05:31:35;;;;;;;2.10;1.35;;;;;;;14.60;77.49;100167.75;5026933;28;20049;-71
2023/07/15 05:34:01;;;;;;;5.32;1.67;;;;;;;14.57;78.00;100166.06;5025716;28;20076;-72
2023/07/15 05:36:27;;;;;;;2.40;1.75;;;;;;;14.44;78.33;100152.47;5042141;28;20065;-72
2023/07/15 05:38:52;;;;;;;1.67;1.33;;;;;;;14.39;78.38;100167.44;5026713;28;20029;-71
2023/07/15 05:41:18;;;;;;;2.58;2.08;;;;;;;14.38;78.95;100171.81;5026976;28;20021;-71
2023/07/15 05:43:43;;;;;;;3.25;1.73;;;;;;;14.29;79.72;100161.63;5025396;28;20048;-71
2023/07/15 05:46:08;;;;;;;2.00;1.80;;;;;;;14.20;80.54;100159.28;5026777;28;20026;-72
2023/07/15 05:48:34;;;;;;;2.50;1.23;;;;;;;14.13;80.75;100145.53;5026836;28;20026;-71
2023/07/15 05:50:59;;;;;;;2.15;1.70;;;;;;;14.10;81.31;100156.06;5026619;28;20474;-74
2023/07/15 05:53:25;;;;;;;1.80;1.48;;;;;;;13.96;82.19;100132.94;5026587;28;20030;-75
2023/07/15 05:55:50;;;;;;;2.40;1.77;;;;;;;13.96;82.55;100136.38;5041943;28;20086;-77
2023/07/15 05:58:15;;;;;;;7.68;1.70;;;;;;;14.06;82.92;100147.44;5026658;28;20052;-75
2023/07/15 06:00:41;;;;;;;2.17;1.50;;;;;;;14.05;83.00;100156.19;5026689;28;20082;-76
2023/07/15 06:03:08;;;;;;;1.83;1.38;;;;;;;14.15;82.95;100146.34;5026688;28;20028;-75
2023/07/15 06:05:36;;;;;;;1.40;1.27;;;;;;;14.05;83.05;100143.13;5026028;28;20030;-74
2023/07/15 06:08:02;;;;;;;5.78;2.20;;;;;;;14.10;83.45;100149.09;5024995;28;20021;-75
2023/07/15 06:10:27;;;;;;;4.68;1.80;;;;;;;14.15;83.18;100129.81;5025083;28;20044;-76
2023/07/15 06:12:53;;;;;;;1.52;1.23;;;;;;;14.12;83.66;100133.38;5026519;28;20030;-75
2023/07/15 06:15:18;;;;;;;3.50;1.38;;;;;;;14.23;83.58;100138.31;5041624;28;20037;-74
2023/07/15 06:17:44;;;;;;;2.65;1.50;;;;;;;14.31;83.75;100128.50;5024942;28;20390;-74
2023/07/15 06:20:10;;;;;;;1.98;1.45;;;;;;;14.34;83.62;100135.38;5026002;28;20029;-74
2023/07/15 06:22:35;;;;;;;2.70;1.52;;;;;;;14.34;84.18;100133.63;5026139;28;20026;-73
2023/07/15 06:25:00;;;;;;;1.88;1.17;;;;;;;14.49;83.58;100118.41;5039966;28;20080;-75
2023/07/15 06:27:26;;;;;;;11.10;2.03;;;;;;;14.44;83.93;100117.69;5027960;28;20045;-75
2023/07/15 06:29:51;;;;;;;4.22;2.03;;;;;;;14.46;84.44;100111.53;5045987;28;20026;-74
2023/07/15 06:32:16;;;;;;;3.50;1.83;;;;;;;14.53;84.27;100117.41;5028172;28;20025;-73
2023/07/15 06:34:42;;;;;;;3.00;1.65;;;;;;;14.64;84.14;100114.50;5045379;28;20446;-74
2023/07/15 06:37:07;;;;;;;5.78;1.63;;;;;;;14.66;84.22;100117.06;5044560;28;20029;-73
2023/07/15 06:39:33;;;;;;;4.93;1.95;;;;;;;14.67;83.88;100100.47;5045528;28;20048;-74
2023/07/15 06:41:58;;;;;;;3.20;1.55;;;;;;;14.71;83.66;100104.72;5045835;28;20536;-72
2023/07/15 06:44:26;;;;;;;4.47;2.13;;;;;;;14.77;83.67;100099.28;5045452;28;20029;-72
2023/07/15 06:46:52;;;;;;;2.78;1.55;;;;;;;14.76;83.48;100094.94;5044482;28;20022;-73
2023/07/15 06:49:17;;;;;;;2.42;1.65;;;;;;;14.91;83.12;100096.28;5045371;28;20029;-74
2023/07/15 06:51:42;;;;;;;1.90;1.70;;;;;;;15.09;81.88;100092.22;5045308;28;20021;-74
2023/07/15 06:54:08;;;;;;;2.78;1.27;;;;;;;15.00;82.20;100087.28;5027720;28;20145;-73
2023/07/15 06:56:33;;;;;;;2.72;1.90;;;;;;;15.00;82.67;100095.13;5045339;28;20053;-73
2023/07/15 06:58:59;;;;;;;2.53;1.90;;;;;;;15.04;83.06;100099.34;5043983;28;20025;-72
2023/07/15 07:01:24;;;;;;;3.67;1.75;;;;;;;15.10;82.10;100099.16;5045078;28;20021;-76
2023/07/15 07:03:51;;;;;;;3.05;2.08;;;;;;;15.14;81.55;100091.22;5044998;28;20037;-78
2023/07/15 07:06:16;;;;;;;3.03;1.60;;;;;;;15.09;81.69;100091.38;5044909;28;20478;-77
2023/07/15 07:08:42;;;;;;;17.13;2.67;;;;;;;15.05;81.59;100068.84;5044774;28;20021;-76
2023/07/15 07:11:07;;;;;;;3.05;1.92;;;;;;;15.07;81.43;100078.34;5044921;28;20025;-74
2023/07/15 07:13:33;;;;;;;2.20;1.70;;;;;;;15.10;81.55;100080.84;5044947;28;20033;-76
2023/07/15 07:15:59;;;;;;;7.38;1.73;;;;;;;15.13;81.51;100082.50;5045249;28;20026;-76
2023/07/15 07:18:25;;;;;;;1.98;1.65;;;;;;;15.13;81.56;100085.13;5044850;28;20036;-76
2023/07/15 07:20:57;;;;;;;2.75;1.35;;;;;;;15.15;81.89;100079.84;5027059;28;20211;-76
2023/07/15 07:23:24;;;;;;;5.13;1.92;;;;;;;15.22;81.36;100076.13;5044631;28;20067;-74
2023/07/15 07:25:50;;;;;;;3.55;2.35;;;;;;;15.17;81.30;100067.59;5045219;28;20049;-75
2023/07/15 07:28:15;;;;;;;3.15;1.88;;;;;;;15.23;81.55;100067.38;5044918;28;20022;-75
2023/07/15 07:30:41;;;;;;;3.20;1.80;;;;;;;15.34;80.46;100067.00;5043302;28;20021;-76
2023/07/15 07:33:06;;;;;;;2.17;1.38;;;;;;;15.41;79.77;100060.69;5044539;28;20030;-74
2023/07/15 07:35:32;;;;;;;3.38;2.05;;;;;;;15.39;79.32;100052.03;5044428;28;20098;-76
2023/07/15 07:37:57;;;;;;;3.08;1.70;;;;;;;15.35;79.79;100039.97;5044514;28;20025;-76
2023/07/15 07:40:22;;;;;;;1.80;1.38;;;;;;;15.48;78.98;100036.00;5043491;28;20027;-73
2023/07/15 07:42:48;;;;;;;3.00;1.85;;;;;;;15.56;78.41;100037.50;5026820;28;20021;-75
2023/07/15 07:45:14;;;;;;;2.65;1.65;;;;;;;15.61;77.67;100032.94;5044633;28;20462;-76
2023/07/15 07:47:40;;;;;;;2.17;1.38;;;;;;;15.73;76.30;100029.88;5044446;28;20025;-68
2023/07/15 07:50:06;;;;;;;2.28;1.63;;;;;;;15.81;74.90;100021.78;5026426;28;20024;-69
2023/07/15 07:52:32;;;;;;;2.28;1.20;;;;;;;15.85;74.62;100028.59;5044401;28;20101;-71
2023/07/15 07:54:57;;;;;;;2.35;1.50;;;;;;;15.89;73.90;100023.25;5044624;28;20032;-72
2023/07/15 07:57:22;;;;;;;1.67;1.42;;;;;;;15.86;74.41;100009.34;5044093;28;20023;-76
2023/07/15 07:59:48;;;;;;;1.88;1.38;;;;;;;15.92;73.21;100010.06;5044614;28;20018;-78
2023/07/15 08:02:13;;;;;;;1.60;1.48;;;;;;;15.96;72.29;100004.63;5043131;28;20021;-79
2023/07/15 08:04:39;;;;;;;1.38;1.25;;;;;;;15.94;72.79;100016.94;5044121;28;20470;-72
2023/07/15 08:07:04;;;;;;;2.15;1.60;;;;;;;16.14;70.72;100014.50;5043882;28;20552;-71
2023/07/15 08:09:30;;;;;;;1.45;1.10;;;;;;;16.14;70.28;100004.88;5044087;28;20041;-75
2023/07/15 08:11:55;;;;;;;2.33;0.95;;;;;;;16.09;70.47;100002.44;5026719;28;20036;-75
2023/07/15 08:14:21;;;;;;;3.00;1.65;;;;;;;16.13;70.58;100005.81;5044261;28;20029;-75
2023/07/15 08:16:46;;;;;;;3.70;1.33;;;;;;;16.15;70.06;99988.25;5044067;28;20079;-73
2023/07/15 08:19:13;;;;;;;4.00;1.77;;;;;;;16.23;69.62;99986.19;5044187;28;20025;-74
2023/07/15 08:21:38;;;;;;;2.30;1.30;;;;;;;16.18;70.32;99982.91;5026216;28;20017;-78
2023/07/15 08:24:04;;;;;;;3.05;1.95;;;;;;;16.34;69.96;100008.53;5043867;28;20113;-74
2023/07/15 08:26:29;;;;;;;1.58;1.42;;;;;;;16.51;68.83;99994.75;5044124;28;20021;-73
2023/07/15 08:28:55;;;;;;;3.45;1.48;;;;;;;16.62;68.59;99991.69;5043947;28;20092;-74
2023/07/15 08:31:21;;;;;;;2.63;1.20;;;;;;;16.78;67.57;99986.69;5044276;28;20029;-75
2023/07/15 08:33:47;;;;;;;3.65;1.80;;;;;;;16.87;67.60;99984.59;5026207;28;20124;-75
2023/07/15 08:36:13;;;;;;;2.25;1.63;;;;;;;16.93;67.21;99963.34;5042725;28;20029;-75
2023/07/15 08:38:38;;;;;;;1.52;0.90;;;;;;;17.10;66.21;99967.91;5044048;28;20036;-74
2023/07/15 08:41:03;;;;;;;1.15;1.05;;;;;;;17.10;66.44;99960.03;5043971;28;20025;-74
2023/07/15 08:43:32;;;;;;;1.65;1.20;;;;;;;17.29;65.30;99961.84;5044268;28;20114;-76
2023/07/15 08:46:22;;;;;;;4.00;1.63;;;;;;;17.41;64.32;99970.97;5047799;28;20052;-74
2023/07/15 08:48:47;;;;;;;3.55;1.45;;;;;;;17.48;64.40;99958.44;5047558;28;20032;-75
2023/07/15 08:51:13;;;;;;;3.75;1.85;;;;;;;17.78;62.83;99960.59;5047253;28;20045;-74
2023/07/15 08:53:40;;;;;;;2.00;1.20;;;;;;;17.87;62.49;99948.81;5047374;28;20021;-73
2023/07/15 08:56:08;;;;;;;3.15;2.15;;;;;;;17.86;62.37;99941.88;5046064;28;20022;-74
2023/07/15 08:58:34;;;;;;;2.20;1.60;;;;;;;17.86;62.35;99934.00;5047172;28;20021;-73
2023/07/15 09:01:00;;;;;;;8.25;2.08;;;;;;;17.92;61.84;99936.31;5047084;28;20100;-72
2023/07/15 09:03:27;;;;;;;8.00;2.92;;;;;;;17.82;62.15;99928.03;5047133;28;20053;-74
2023/07/15 09:05:53;;;;;;;6.15;2.15;;;;;;;17.70;62.18;99927.66;5046942;28;20022;-72
2023/07/15 09:08:18;;;;;;;7.68;2.78;;;;;;;17.77;62.19;99922.13;5045955;28;20048;-73
2023/07/15 09:10:58;;;;;;;8.73;2.90;;;;;;;17.62;63.13;99911.41;5047212;28;20026;-74
2023/07/15 09:13:27;;;;;;;3.35;1.73;;;;;;;17.73;62.87;99910.94;5047040;28;20036;-69
2023/07/15 09:15:54;;;;;;;10.68;2.00;;;;;;;17.81;62.78;99903.53;5047222;28;20026;-68
2023/07/15 09:18:19;;;;;;;8.85;2.28;;;;;;;17.95;62.00;99899.41;5046893;28;20035;-80
2023/07/15 09:20:46;;;;;;;6.10;2.10;;;;;;;17.98;62.22;99894.00;5046581;28;20049;-76
2023/07/15 09:23:11;;;;;;;2.92;1.50;;;;;;;18.00;61.44;99888.69;5046828;28;20029;-78
2023/07/15 09:25:37;;;;;;;6.65;2.90;;;;;;;18.11;60.88;99896.03;5028864;28;20378;-79
2023/07/15 09:28:07;;;;;;;4.65;3.03;;;;;;;18.00;61.31;99891.31;5046658;28;20032;-78
2023/07/15 09:30:32;;;;;;;9.13;2.67;;;;;;;17.90;61.55;99885.66;5045357;28;20128;-79
2023/07/15 09:32:58;;;;;;;7.03;3.05;;;;;;;18.03;61.12;99896.41;5046726;28;20017;-75
2023/07/15 09:35:34;;;;;;;5.28;1.88;;;;;;;18.02;60.94;99895.56;5046453;28;20014;-76
2023/07/15 09:38:00;;;;;;;2.47;2.00;;;;;;;18.09;60.19;99875.97;5046821;28;20025;-75
2023/07/15 09:40:25;;;;;;;9.95;3.38;;;;;;;18.14;60.21;99877.53;5046629;28;20036;-77
2023/07/15 09:42:53;;;;;;;6.75;2.53;;;;;;;18.13;60.66;99889.81;5046707;28;20109;-75
2023/07/15 09:45:33;;;;;;;4.05;2.25;;;;;;;18.24;59.91;99865.66;5028662;28;20022;-77
2023/07/15 09:47:59;;;;;;;6.05;2.10;;;;;;;18.27;59.90;99865.53;5046560;28;20045;-75
2023/07/15 09:50:25;;;;;;;3.08;2.13;;;;;;;18.28;59.97;99875.09;5028126;28;20021;-77
2023/07/15 09:52:54;;;;;;;4.10;1.88;;;;;;;18.32;59.61;99867.91;5045009;28;20021;-76
2023/07/15 09:55:22;;;;;;;3.30;1.27;;;;;;;18.62;58.32;99869.06;5028139;28;20017;-77
2023/07/15 09:57:53;;;;;;;4.03;1.55;;;;;;;18.49;58.68;99863.56;5046104;28;20085;-77
2023/07/15 10:00:20;;;;;;;5.13;2.30;;;;;;;18.64;58.20;99856.69;5028195;28;20033;-77
2023/07/15 10:02:55;;;;;;;2.15;1.40;;;;;;;18.67;58.47;99860.03;5046104;28;20492;-74
2023/07/15 10:05:22;;;;;;;3.20;2.33;;;;;;;18.66;58.48;99846.94;5045989;28;20021;-76
2023/07/15 10:07:50;;;;;;;2.65;1.35;;;;;;;18.73;57.97;99843.06;5045981;28;20032;-77
2023/07/15 10:10:18;;;;;;;4.40;1.50;;;;;;;18.80;57.78;99864.66;5046172;28;20030;-69
2023/07/15 10:12:44;;;;;;;5.13;1.60;;;;;;;18.92;57.34;99842.97;5046065;28;20045;-75
2023/07/15 10:15:10;;;;;;;3.47;1.92;;;;;;;19.03;56.97;99852.06;5046076;28;20013;-76
2023/07/15 10:17:37;;;;;;;4.18;1.40;;;;;;;19.11;57.33;99857.81;5045904;28;20037;-76
2023/07/15 10:20:10;;;;;;;3.80;1.67;;;;;;;19.25;56.79;99838.63;5045755;28;20104;-77
2023/07/15 10:22:36;;;;;;;2.83;1.40;;;;;;;19.27;57.45;99830.66;5045875;28;20108;-77
2023/07/15 10:25:04;;;;;;;2.42;1.35;;;;;;;19.75;56.14;99825.41;5043971;28;20041;-76
2023/07/15 10:27:31;;;;;;;4.38;1.67;;;;;;;19.94;54.99;99816.44;5044283;28;20043;-78
2023/07/15 10:30:32;;;;;;;0.80;0.77;;;;;;;20.01;54.66;99830.97;5045781;28;20374;-77
2023/07/15 10:33:00;;;;;;;3.22;1.63;;;;;;;19.89;54.82;99847.50;4984365;28;20030;-77
2023/07/15 10:35:32;;;;;;;4.50;1.90;;;;;;;19.74;55.04;99826.34;4984313;28;20616;-77
2023/07/15 10:38:21;;;;;;;;;;;;;;;19.67;55.83;99825.84;4984431;28;20059;-74
2023/07/15 10:41:02;;;;;;;1.75;1.10;;;;;;;19.79;55.36;99826.91;4979044;28;19914;-77
2023/07/15 10:43:33;;;;;;;2.00;1.50;;;;;;;19.85;55.11;99804.66;4984162;28;20027;-74
2023/07/15 10:46:02;;;;;;;1.80;1.23;;;;;;;19.75;56.05;99809.59;4983827;28;20042;-75
2023/07/15 10:48:27;;;;;;;2.30;1.60;;;;;;;19.84;56.00;99802.94;4983920;28;20073;-73
2023/07/15 10:50:54;;;;;;;5.15;1.58;;;;;;;20.03;55.30;99805.41;4983911;28;20050;-75
2023/07/15 10:53:23;;;;;;;1.48;0.90;;;;;;;20.24;54.19;99815.63;4983984;28;20133;-75
2023/07/15 10:56:05;;;;;;;4.43;1.70;;;;;;;20.20;54.84;99800.94;4983828;28;20146;-73
2023/07/15 10:58:35;;;;;;;3.35;1.52;;;;;;;20.41;53.81;99803.25;4967466;28;20027;-75
2023/07/15 11:01:02;;;;;;;7.80;1.42;;;;;;;20.28;54.41;99798.72;4983740;28;20090;-75
2023/07/15 11:03:34;;;;;;;4.72;1.55;;;;;;;20.63;52.69;99787.00;4983529;28;20034;-70
2023/07/15 11:06:01;;;;;;;2.70;1.45;;;;;;;20.60;52.79;99783.69;4989787;28;20112;-69
2023/07/15 11:08:27;;;;;;;3.17;2.05;;;;;;;20.37;54.42;99792.03;5044549;28;20092;-69
2023/07/15 11:11:01;;;;;;;1.63;0.85;;;;;;;20.46;54.50;99795.94;5044858;28;20022;-70
2023/07/15 11:13:28;;;;;;;2.85;1.13;;;;;;;20.84;53.15;99793.69;5044909;28;20403;-69
2023/07/15 11:15:54;;;;;;;2.78;1.05;;;;;;;20.85;52.80;99784.81;5044700;28;20025;-70
2023/07/15 11:18:22;;;;;;;3.58;1.10;;;;;;;20.96;52.16;99773.66;5044595;28;20025;-70
2023/07/15 11:20:49;;;;;;;0.35;0.35;;;;;;;21.19;51.11;99777.47;5026715;28;20104;-68
2023/07/15 11:23:16;;;;;;;1.35;1.08;;;;;;;20.48;53.54;99788.75;5044379;28;20021;-69
2023/07/15 11:25:43;;;;;;;2.00;0.80;;;;;;;20.80;52.42;99787.72;5043284;28;20056;-68